Time;durP1;ratioP1;P1;durP2;ratioP2;P2;SDS_P1;SDS_P2;PMS_P1;PMS_P2;Temp;Humidity;BMP_temperature;BMP_pressure;BME280_temperature;BME280_humidity;BME280_pressure;Samples;Min_cycle;Max_cycle;Signal;HPM_P1;HPM_P2
2023/08/11 00:00:51;;;;;;;7.22;4.35;;;;;;;25.76;54.25;101573.59;6142175;23;20020;-83
2023/08/11 00:03:18;;;;;;;5.35;4.35;;;;;;;25.79;54.18;101577.75;6146918;23;20050;-81
2023/08/11 00:05:45;;;;;;;8.80;4.88;;;;;;;25.44;54.20;101517.41;6168819;23;20059;-81
2023/08/11 00:08:13;;;;;;;4.82;4.07;;;;;;;25.79;54.07;101578.59;6155585;23;20048;-81
2023/08/11 00:10:40;;;;;;;7.28;4.45;;;;;;;25.80;54.33;101574.84;6175187;23;20032;-81
2023/08/11 00:13:12;;;;;;;7.65;4.47;;;;;;;25.67;54.58;101558.53;6161482;23;20023;-81
2023/08/11 00:15:44;;;;;;;10.35;4.60;;;;;;;25.82;54.25;101576.50;6142099;23;20017;-82
2023/08/11 00:18:12;;;;;;;6.75;4.32;;;;;;;25.79;54.56;101565.00;6149633;23;20016;-81
2023/08/11 00:20:43;;;;;;;10.43;5.00;;;;;;;25.82;54.31;101562.91;6132684;23;20028;-83
2023/08/11 00:23:12;;;;;;;12.75;5.03;;;;;;;25.33;54.47;101498.00;6166543;23;20487;-81
2023/08/11 00:25:39;;;;;;;11.50;4.35;;;;;;;25.67;54.76;101569.44;6162155;23;20443;-80
2023/08/11 00:28:06;;;;;;;8.50;4.63;;;;;;;25.28;55.23;101519.53;6205950;23;20216;-81
2023/08/11 00:30:41;;;;;;;13.70;5.40;;;;;;;25.53;54.81;101562.34;6166317;23;20025;-80
2023/08/11 00:33:10;;;;;;;7.03;4.30;;;;;;;25.43;55.17;101557.34;6200275;23;20347;-83
2023/08/11 00:35:37;;;;;;;9.02;4.70;;;;;;;25.58;55.04;101570.69;6188767;23;20443;-84
2023/08/11 00:38:04;;;;;;;9.38;4.75;;;;;;;25.54;55.25;101569.47;6178753;23;20028;-83
2023/08/11 00:40:31;;;;;;;7.60;4.90;;;;;;;25.48;55.53;101573.03;6175469;23;20475;-81
2023/08/11 00:42:58;;;;;;;12.25;5.10;;;;;;;24.89;55.64;101494.06;6186986;23;20022;-83
2023/08/11 00:45:24;;;;;;;7.95;4.43;;;;;;;25.37;56.24;101569.91;6179118;23;20017;-83
2023/08/11 00:47:53;;;;;;;9.07;4.95;;;;;;;25.26;55.93;101556.94;6189592;23;20268;-82
2023/08/11 00:50:19;;;;;;;7.90;4.80;;;;;;;25.37;55.94;101569.91;6174782;23;20087;-82
2023/08/11 00:52:46;;;;;;;9.95;4.72;;;;;;;25.14;55.53;101523.28;6171975;23;20017;-82
2023/08/11 00:55:18;;;;;;;7.75;5.28;;;;;;;25.42;55.49;101566.56;6172859;23;20336;-84
2023/08/11 00:57:50;;;;;;;6.40;5.00;;;;;;;25.39;55.62;101567.00;6170983;23;20017;-83
2023/08/11 01:00:24;;;;;;;7.07;5.05;;;;;;;25.38;55.77;101566.13;6167074;23;20017;-82
2023/08/11 01:02:51;;;;;;;6.50;5.25;;;;;;;25.31;56.34;101568.03;6179047;23;20025;-82
2023/08/11 01:05:19;;;;;;;8.88;5.22;;;;;;;25.35;55.81;101565.72;6156008;23;20020;-84
2023/08/11 01:08:14;;;;;;;10.00;5.35;;;;;;;25.34;56.14;101569.47;6176706;23;20020;-83
2023/08/11 01:11:00;;;;;;;10.50;5.15;;;;;;;25.32;56.18;101567.00;6168615;23;20176;-82
2023/08/11 01:13:32;;;;;;;8.18;5.25;;;;;;;25.24;56.38;101559.03;6134098;23;20048;-83
2023/08/11 01:16:00;;;;;;;8.88;5.47;;;;;;;25.25;56.27;101571.59;6167205;23;20464;-81
2023/08/11 01:18:28;;;;;;;7.72;4.95;;;;;;;25.11;56.34;101549.00;6178389;23;20096;-81
2023/08/11 01:21:03;;;;;;;9.50;5.07;;;;;;;25.24;56.41;101569.91;6173913;23;20028;-83
2023/08/11 01:23:30;;;;;;;9.35;5.15;;;;;;;25.19;56.57;101561.56;6189030;23;20515;-81
2023/08/11 01:25:57;;;;;;;9.80;5.55;;;;;;;25.13;56.81;101573.25;6172961;23;20076;-82
2023/08/11 01:28:24;;;;;;;13.18;5.40;;;;;;;24.92;56.79;101542.50;6175155;23;20650;-83
2023/08/11 01:30:55;;;;;;;9.48;6.00;;;;;;;24.54;56.68;101479.88;6189063;23;20021;-83
2023/08/11 01:33:27;;;;;;;7.35;5.45;;;;;;;25.10;56.39;101570.94;6187173;23;20020;-82
2023/08/11 01:35:59;;;;;;;9.13;5.45;;;;;;;25.01;56.85;101566.78;6178117;23;20020;-82
2023/08/11 01:38:30;;;;;;;10.43;5.15;;;;;;;24.73;57.35;101551.47;6155330;23;20021;-82
2023/08/11 01:41:01;;;;;;;16.05;5.55;;;;;;;24.41;57.68;101513.19;6142073;23;20062;-83
2023/08/11 01:43:31;;;;;;;8.20;5.43;;;;;;;24.82;57.44;101576.56;6156456;23;20087;-81
2023/08/11 01:45:58;;;;;;;8.93;6.00;;;;;;;24.70;57.86;101577.16;6172322;23;20016;-81
2023/08/11 01:48:26;;;;;;;21.65;6.18;;;;;;;24.69;57.87;101583.66;6184506;23;20021;-81
2023/08/11 01:50:53;;;;;;;8.18;5.60;;;;;;;24.59;57.91;101561.50;6171731;23;20121;-80
2023/08/11 01:53:23;;;;;;;14.25;5.82;;;;;;;24.44;58.09;101553.50;6166270;23;20148;-82
2023/08/11 01:55:55;;;;;;;8.40;5.28;;;;;;;24.43;58.19;101554.53;6166919;23;20024;-82
2023/08/11 01:58:22;;;;;;;9.23;5.82;;;;;;;24.16;57.99;101509.41;6170272;23;20325;-81
2023/08/11 02:00:53;;;;;;;11.23;5.43;;;;;;;24.58;57.98;101595.09;6157203;23;20016;-82
2023/08/11 02:03:24;;;;;;;12.05;5.50;;;;;;;24.52;58.05;101583.19;6186322;23;20024;-83
2023/08/11 02:05:55;;;;;;;8.38;5.40;;;;;;;24.43;58.38;101573.53;6199057;23;20340;-82
2023/08/11 02:08:22;;;;;;;7.65;5.18;;;;;;;23.92;58.35;101498.03;6184487;23;20412;-82
2023/08/11 02:10:53;;;;;;;8.18;5.53;;;;;;;24.37;58.50;101577.09;6183617;23;20088;-82
2023/08/11 02:13:19;;;;;;;11.32;4.80;;;;;;;24.39;58.54;101591.25;6186599;23;20181;-82
2023/08/11 02:15:46;;;;;;;12.77;5.15;;;;;;;24.01;58.63;101528.53;6191065;23;20429;-82
2023/08/11 02:18:13;;;;;;;15.25;5.43;;;;;;;24.35;58.67;101586.47;6185162;23;20083;-83
2023/08/11 02:20:41;;;;;;;7.60;5.00;;;;;;;23.87;58.89;101501.34;6195329;23;20437;-81
2023/08/11 02:23:09;;;;;;;7.05;5.10;;;;;;;24.40;58.56;101581.25;6182406;23;20270;-83
2023/08/11 02:25:36;;;;;;;8.98;5.15;;;;;;;24.39;58.78;101588.53;6175078;23;20024;-82
2023/08/11 02:28:04;;;;;;;7.55;5.32;;;;;;;24.35;59.02;101575.63;6180494;23;20016;-82
2023/08/11 02:30:31;;;;;;;11.65;6.38;;;;;;;24.30;58.93;101574.34;6209806;23;20356;-82
2023/08/11 02:32:59;;;;;;;10.13;5.68;;;;;;;24.47;58.75;101593.84;6197881;23;20020;-83
2023/08/11 02:35:31;;;;;;;10.68;5.75;;;;;;;24.01;58.78;101536.69;6193849;23;20344;-82
2023/08/11 02:37:58;;;;;;;9.55;5.05;;;;;;;24.35;59.06;101591.91;6208542;23;20419;-83
2023/08/11 02:40:26;;;;;;;14.48;7.72;;;;;;;23.58;59.09;101478.06;6193220;23;20051;-83
2023/08/11 02:43:02;;;;;;;13.18;6.00;;;;;;;23.76;59.61;101499.22;6173831;23;20100;-83
2023/08/11 02:45:28;;;;;;;7.28;5.88;;;;;;;23.37;59.43;101441.03;6181084;23;20278;-83
2023/08/11 02:47:56;;;;;;;14.32;5.18;;;;;;;24.23;59.41;101583.50;6206456;23;20017;-82
2023/08/11 02:50:23;;;;;;;8.88;5.35;;;;;;;24.03;59.61;101557.13;6182207;23;20488;-82
2023/08/11 02:52:50;;;;;;;7.75;5.50;;;;;;;23.05;59.81;101404.63;6175234;23;20029;-82
2023/08/11 02:55:16;;;;;;;15.23;6.13;;;;;;;23.46;59.87;101475.06;6190796;23;20483;-81
2023/08/11 02:57:43;;;;;;;8.80;5.90;;;;;;;23.99;59.59;101557.75;6176713;23;20103;-82
2023/08/11 03:00:15;;;;;;;7.70;6.25;;;;;;;24.25;59.54;101593.09;6179294;23;20699;-83
2023/08/11 03:02:56;;;;;;;9.98;6.20;;;;;;;24.18;59.41;101575.13;6183972;23;20372;-82
2023/08/11 03:05:28;;;;;;;8.45;5.15;;;;;;;24.31;59.53;101599.59;6165564;23;20068;-81
2023/08/11 03:07:56;;;;;;;16.17;5.93;;;;;;;24.02;59.47;101554.63;6171279;23;20023;-82
2023/08/11 03:10:29;;;;;;;19.25;6.55;;;;;;;24.15;59.66;101586.38;6177312;23;20485;-82
2023/08/11 03:13:17;;;;;;;7.07;5.57;;;;;;;24.10;59.95;101579.69;6180205;23;20396;-81
2023/08/11 03:15:44;;;;;;;9.45;5.78;;;;;;;23.99;60.28;101582.97;6180515;23;20516;-81
2023/08/11 03:18:11;;;;;;;9.50;5.80;;;;;;;23.85;60.53;101559.53;6178387;23;20021;-80
2023/08/11 03:20:38;;;;;;;9.80;5.40;;;;;;;24.06;60.56;101594.69;6167405;23;20024;-81
2023/08/11 03:23:04;;;;;;;8.63;5.80;;;;;;;24.08;60.56;101599.94;6184337;23;20016;-80
2023/08/11 03:25:36;;;;;;;8.73;6.30;;;;;;;24.02;60.24;101579.84;6181782;23;20090;-82
2023/08/11 03:28:21;;;;;;;10.18;5.65;;;;;;;24.19;60.40;101610.19;6172215;23;20345;-80
2023/08/11 03:30:48;;;;;;;19.70;6.13;;;;;;;24.07;60.41;101606.38;6166652;23;20032;-81
2023/08/11 03:33:15;;;;;;;15.77;7.00;;;;;;;23.54;60.43;101530.97;6182051;23;20447;-82
2023/08/11 03:35:44;;;;;;;13.77;6.55;;;;;;;23.77;60.71;101574.09;6172787;23;20625;-80
2023/08/11 03:38:11;;;;;;;9.45;6.13;;;;;;;23.85;60.97;101594.78;6179428;23;20024;-81
2023/08/11 03:40:42;;;;;;;10.40;6.15;;;;;;;23.85;60.83;101594.78;6171693;23;20464;-82
2023/08/11 03:43:10;;;;;;;15.30;6.63;;;;;;;24.00;61.27;101621.78;6173596;23;20025;-80
2023/08/11 03:45:36;;;;;;;9.63;6.28;;;;;;;23.89;61.24;101615.06;6185446;23;20216;-81
2023/08/11 03:48:07;;;;;;;8.85;6.20;;;;;;;23.93;61.20;101627.16;6186450;23;20024;-81
2023/08/11 03:50:38;;;;;;;9.95;6.50;;;;;;;23.92;61.32;101635.50;6165898;23;20052;-83
2023/08/11 03:53:05;;;;;;;9.30;6.43;;;;;;;23.57;61.61;101590.22;6158476;23;20025;-80
2023/08/11 03:55:31;;;;;;;11.93;6.60;;;;;;;23.87;61.61;101641.53;6172570;23;20020;-82
2023/08/11 03:57:58;;;;;;;9.18;6.53;;;;;;;23.88;61.45;101644.06;6148946;23;20052;-82
2023/08/11 04:00:25;;;;;;;10.30;6.28;;;;;;;23.71;61.84;101625.53;6166344;23;20379;-81
2023/08/11 04:02:51;;;;;;;9.40;6.50;;;;;;;23.82;62.03;101641.28;6163706;23;20021;-82
2023/08/11 04:05:18;;;;;;;14.23;6.68;;;;;;;23.65;61.96;101611.75;6145916;23;20325;-83
2023/08/11 04:07:45;;;;;;;13.95;6.78;;;;;;;23.67;62.28;101622.41;6129279;23;20453;-81
2023/08/11 04:10:15;;;;;;;12.45;6.70;;;;;;;23.67;61.97;101608.84;6150303;23;20360;-81
2023/08/11 04:12:42;;;;;;;15.18;6.63;;;;;;;23.57;61.76;101592.94;6161719;23;20467;-82
2023/08/11 04:15:09;;;;;;;8.68;6.60;;;;;;;23.94;61.46;101639.69;6143880;23;20388;-82
2023/08/11 04:17:36;;;;;;;18.30;6.88;;;;;;;23.83;62.03;101635.66;6140185;23;20024;-82
2023/08/11 04:20:12;;;;;;;12.18;6.65;;;;;;;23.79;62.07;101639.81;6154178;23;20095;-82
2023/08/11 04:22:40;;;;;;;13.68;6.80;;;;;;;23.82;62.10;101646.72;6154916;23;20051;-83
2023/08/11 04:25:09;;;;;;;16.80;6.47;;;;;;;23.82;62.27;101647.53;6156336;23;20021;-82
2023/08/11 04:27:37;;;;;;;11.52;6.55;;;;;;;23.79;62.33;101647.13;6169913;23;20380;-82
2023/08/11 04:30:04;;;;;;;9.52;5.88;;;;;;;23.83;62.16;101642.94;6152491;23;20024;-84
2023/08/11 04:32:31;;;;;;;11.95;7.03;;;;;;;23.92;61.96;101652.59;6163514;23;20447;-82
2023/08/11 04:34:59;;;;;;;9.65;6.45;;;;;;;23.95;61.48;101649.50;6170258;23;20116;-82
2023/08/11 04:37:26;;;;;;;13.13;7.65;;;;;;;23.70;60.97;101583.22;6174556;23;20052;-83
2023/08/11 04:39:53;;;;;;;12.32;7.38;;;;;;;23.57;61.26;101579.38;6159939;23;20103;-82
2023/08/11 04:42:20;;;;;;;12.52;7.40;;;;;;;23.11;61.09;101514.00;6184297;23;20028;-82
2023/08/11 04:44:46;;;;;;;14.13;7.40;;;;;;;23.71;61.50;101620.94;6179538;23;20509;-85
2023/08/11 04:47:13;;;;;;;12.68;7.85;;;;;;;23.81;61.81;101643.16;6135763;23;20078;-81
2023/08/11 04:49:46;;;;;;;12.40;7.60;;;;;;;23.80;61.85;101662.34;6166313;23;20428;-83
2023/08/11 04:52:13;;;;;;;10.02;7.22;;;;;;;23.51;62.00;101615.38;6183622;23;20017;-81
2023/08/11 04:54:39;;;;;;;13.65;8.55;;;;;;;23.83;61.88;101664.66;6168132;23;20027;-79
2023/08/11 04:57:12;;;;;;;9.27;7.03;;;;;;;23.74;61.88;101645.00;6131338;23;20244;-81
2023/08/11 04:59:44;;;;;;;11.38;8.00;;;;;;;23.82;61.85;101660.28;6155064;23;20029;-82
2023/08/11 05:02:11;;;;;;;;;;;;;;;23.78;62.89;101673.38;6181674;23;20379;-81
2023/08/11 05:04:38;;;;;;;14.02;8.45;;;;;;;23.34;63.01;101595.06;6152508;23;20001;-79
2023/08/11 05:07:13;;;;;;;14.48;7.90;;;;;;;23.70;62.92;101659.13;6162604;23;20201;-82
2023/08/11 05:09:50;;;;;;;12.88;7.70;;;;;;;23.58;63.22;101631.72;6143745;23;20099;-82
2023/08/11 05:12:24;;;;;;;17.02;8.07;;;;;;;23.75;63.23;101664.81;6139511;23;20099;-80
2023/08/11 05:14:57;;;;;;;14.38;7.63;;;;;;;23.77;63.42;101654.59;6152267;23;20012;-81
2023/08/11 05:17:28;;;;;;;13.80;7.82;;;;;;;23.84;63.10;101671.75;6150475;23;20424;-83
2023/08/11 05:20:06;;;;;;;15.73;7.38;;;;;;;23.82;62.88;101663.81;6112390;23;20469;-81
2023/08/11 05:22:39;;;;;;;11.05;7.75;;;;;;;23.91;62.25;101674.50;6125996;23;20229;-81
2023/08/11 05:25:13;;;;;;;20.25;8.05;;;;;;;23.91;62.70;101675.34;6186544;23;20024;-81
2023/08/11 05:27:43;;;;;;;14.27;8.52;;;;;;;23.39;62.27;101598.00;6154119;23;20028;-80
2023/08/11 05:30:10;;;;;;;14.75;8.57;;;;;;;24.03;62.13;101692.75;6181505;23;20522;-83
2023/08/11 05:32:36;;;;;;;14.23;8.50;;;;;;;24.04;61.76;101678.13;6167679;23;20292;-83
2023/08/11 05:35:04;;;;;;;16.80;7.75;;;;;;;24.16;61.85;101691.16;6186046;23;20096;-80
2023/08/11 05:37:31;;;;;;;13.95;7.90;;;;;;;24.07;61.63;101674.19;6167961;23;20177;-82
2023/08/11 05:40:02;;;;;;;12.63;8.00;;;;;;;24.22;61.71;101701.19;6137232;23;20316;-82
2023/08/11 05:42:41;;;;;;;12.13;6.95;;;;;;;23.91;61.55;101645.53;6165166;23;20491;-82
2023/08/11 05:45:13;;;;;;;12.82;7.75;;;;;;;23.91;61.46;101644.66;6168448;23;20020;-82
2023/08/11 05:47:45;;;;;;;14.75;7.63;;;;;;;24.14;61.13;101666.09;6171974;23;20021;-81
2023/08/11 05:50:16;;;;;;;22.70;7.47;;;;;;;24.34;61.38;101687.88;6137116;23;20029;-82
2023/08/11 05:52:43;;;;;;;10.52;6.65;;;;;;;24.45;61.11;101698.19;6147958;23;20183;-80
2023/08/11 05:55:18;;;;;;;13.80;6.30;;;;;;;24.15;60.43;101648.75;6132597;23;20052;-81
2023/08/11 05:57:51;;;;;;;12.85;6.32;;;;;;;24.44;60.09;101686.50;6141972;23;20413;-81
2023/08/11 06:00:21;;;;;;;7.57;6.43;;;;;;;24.52;60.01;101697.19;6181557;23;20251;-81
2023/08/11 06:02:48;;;;;;;10.07;6.63;;;;;;;24.15;60.04;101646.88;6166687;23;20021;-80
2023/08/11 06:05:21;;;;;;;10.45;6.50;;;;;;;24.27;60.00;101668.84;6170862;23;20356;-81
2023/08/11 06:07:48;;;;;;;14.00;6.47;;;;;;;24.60;60.09;101719.78;6142247;23;20104;-81
2023/08/11 06:10:32;;;;;;;11.45;6.25;;;;;;;24.65;59.73;101723.56;6157998;23;20024;-81
2023/08/11 06:13:00;;;;;;;13.35;6.97;;;;;;;24.74;59.25;101718.81;6172858;23;20402;-82
2023/08/11 06:15:27;;;;;;;8.80;6.35;;;;;;;24.72;58.87;101726.31;6162574;23;20421;-83
2023/08/11 06:17:54;;;;;;;9.35;6.22;;;;;;;24.69;58.82;101718.56;6155792;23;20621;-81
2023/08/11 06:20:27;;;;;;;7.88;6.65;;;;;;;24.77;59.04;101712.94;6147487;23;20260;-79
2023/08/11 06:23:08;;;;;;;13.60;6.30;;;;;;;24.83;58.63;101720.31;6173565;23;20405;-83
2023/08/11 06:25:37;;;;;;;11.73;6.57;;;;;;;24.80;58.05;101715.25;6184023;23;20253;-84
2023/08/11 06:28:04;;;;;;;14.23;6.50;;;;;;;24.93;57.62;101726.19;6172486;23;20309;-84
2023/08/11 06:30:35;;;;;;;16.00;6.35;;;;;;;24.97;57.54;101723.03;6176658;23;20052;-82
2023/08/11 06:33:09;;;;;;;17.20;6.93;;;;;;;24.97;57.28;101704.03;6154706;23;20271;-83
2023/08/11 06:35:45;;;;;;;13.25;5.90;;;;;;;24.90;57.35;101696.72;6120061;23;20272;-80
2023/08/11 06:38:25;;;;;;;13.50;6.20;;;;;;;25.03;57.70;101704.06;6134591;23;20016;-83
2023/08/11 06:41:03;;;;;;;10.77;5.68;;;;;;;25.23;57.89;101725.84;6141509;23;20024;-81
2023/08/11 06:43:34;;;;;;;16.48;6.50;;;;;;;25.30;57.86;101732.13;6149358;23;20176;-82
2023/08/11 06:46:06;;;;;;;12.98;7.22;;;;;;;25.31;57.78;101717.50;6186972;23;20024;-80
2023/08/11 06:48:33;;;;;;;12.65;7.00;;;;;;;25.33;57.75;101707.25;6161705;23;20139;-82
2023/08/11 06:51:04;;;;;;;;;;;;;;;25.47;57.41;101738.00;6160160;23;20071;-82
2023/08/11 06:53:39;;;;;;;10.10;6.57;;;;;;;25.55;57.33;101745.13;6160329;23;20185;-81
2023/08/11 06:56:07;;;;;;;14.38;6.68;;;;;;;25.64;57.24;101743.88;6153378;23;20096;-80
2023/08/11 06:58:34;;;;;;;12.93;6.85;;;;;;;25.72;57.19;101743.66;6178086;23;20484;-80
2023/08/11 07:01:04;;;;;;;10.02;5.82;;;;;;;25.72;57.22;101731.94;6166844;23;20101;-81
2023/08/11 07:03:33;;;;;;;11.57;6.10;;;;;;;25.56;56.95;101703.31;6164870;23;20048;-81
2023/08/11 07:06:01;;;;;;;9.98;6.00;;;;;;;25.74;56.96;101730.69;6187020;23;20017;-80
2023/08/11 07:08:29;;;;;;;13.32;6.25;;;;;;;26.00;56.08;101750.81;6156368;23;20755;-81
2023/08/11 07:10:55;;;;;;;10.23;5.82;;;;;;;25.77;55.70;101719.38;6171337;23;20023;-80
2023/08/11 07:13:22;;;;;;;11.27;6.85;;;;;;;25.99;55.68;101736.34;6170645;23;20017;-78
2023/08/11 07:15:49;;;;;;;12.88;5.28;;;;;;;26.07;55.66;101748.91;6180432;23;20016;-81
2023/08/11 07:18:15;;;;;;;13.05;5.50;;;;;;;25.95;55.76;101720.69;6179787;23;20348;-81
2023/08/11 07:20:46;;;;;;;8.77;5.45;;;;;;;26.09;55.53;101746.78;6174695;23;20213;-82
2023/08/11 07:23:16;;;;;;;11.00;5.90;;;;;;;26.24;56.21;101765.63;6170129;23;20070;-80
2023/08/11 07:25:43;;;;;;;10.88;4.70;;;;;;;25.62;55.88;101658.97;6179048;23;20411;-80
2023/08/11 07:28:10;;;;;;;15.35;5.40;;;;;;;26.15;55.16;101731.53;6178539;23;20025;-82
2023/08/11 07:30:36;;;;;;;19.73;5.55;;;;;;;26.20;55.13;101740.72;6157217;23;20028;-80
2023/08/11 07:33:05;;;;;;;13.77;4.88;;;;;;;26.43;55.37;101763.88;6165601;23;20124;-81
2023/08/11 07:35:32;;;;;;;7.25;4.03;;;;;;;26.50;54.51;101770.16;6173114;23;20020;-80
2023/08/11 07:37:59;;;;;;;7.85;4.68;;;;;;;26.25;55.11;101707.41;6157238;23;20499;-81
2023/08/11 07:40:26;;;;;;;6.50;4.28;;;;;;;26.31;54.45;101722.91;6132618;23;20021;-82
2023/08/11 07:42:52;;;;;;;10.07;4.85;;;;;;;26.47;54.81;101732.47;6157421;23;20379;-81
2023/08/11 07:45:19;;;;;;;7.85;4.30;;;;;;;26.70;54.85;101763.84;6164088;23;20021;-80
2023/08/11 07:47:46;;;;;;;13.43;4.80;;;;;;;26.47;54.69;101716.13;6180842;23;20027;-80
2023/08/11 07:50:13;;;;;;;10.68;4.47;;;;;;;26.70;55.29;101758.38;6169770;23;20025;-81
2023/08/11 07:52:43;;;;;;;7.30;4.45;;;;;;;26.66;55.04;101746.28;6173935;23;20333;-81
2023/08/11 07:55:16;;;;;;;12.55;4.35;;;;;;;26.89;54.88;101768.34;6152496;23;20048;-80
2023/08/11 07:57:42;;;;;;;5.40;3.25;;;;;;;26.83;54.87;101744.72;6165060;23;20100;-82
2023/08/11 08:00:20;;;;;;;5.32;3.38;;;;;;;26.81;54.82;101733.19;6168127;23;20029;-81
2023/08/11 08:02:50;;;;;;;5.75;3.40;;;;;;;27.03;53.72;101759.06;6152772;23;20468;-81
2023/08/11 08:05:22;;;;;;;8.23;3.55;;;;;;;27.25;53.18;101772.41;6167372;23;20043;-81
2023/08/11 08:07:50;;;;;;;6.55;3.80;;;;;;;27.19;52.97;101767.84;6155011;23;20024;-82
2023/08/11 08:10:20;;;;;;;6.88;3.80;;;;;;;27.05;53.05;101746.06;6179011;23;20028;-82
2023/08/11 08:12:54;;;;;;;6.15;3.83;;;;;;;27.04;53.39;101741.69;6161875;23;20030;-80
2023/08/11 08:15:21;;;;;;;9.88;3.80;;;;;;;27.30;53.42;101780.75;6177564;23;20023;-80
2023/08/11 08:17:51;;;;;;;11.02;4.05;;;;;;;26.51;52.77;101652.03;6187333;23;20020;-82
2023/08/11 08:20:18;;;;;;;9.25;4.05;;;;;;;27.44;51.71;101771.44;6209764;23;20024;-80
2023/08/11 08:22:45;;;;;;;7.55;3.05;;;;;;;27.38;52.11;101777.78;6175183;23;20017;-82
2023/08/11 08:25:12;;;;;;;5.60;3.70;;;;;;;27.42;51.97;101781.72;6192808;23;20017;-80
2023/08/11 08:27:41;;;;;;;6.95;3.58;;;;;;;27.41;51.97;101777.34;6167743;23;20782;-80
2023/08/11 08:30:10;;;;;;;6.85;4.05;;;;;;;27.38;52.01;101758.69;6173413;23;20294;-82
2023/08/11 08:32:39;;;;;;;6.60;3.78;;;;;;;27.60;50.60;101782.84;6181468;23;20091;-81
2023/08/11 08:35:09;;;;;;;11.10;3.33;;;;;;;27.65;50.54;101770.25;6160632;23;20087;-82
2023/08/11 08:37:41;;;;;;;6.80;3.22;;;;;;;27.70;50.98;101781.31;6158684;23;20269;-82
2023/08/11 08:40:08;;;;;;;10.00;3.30;;;;;;;27.49;50.49;101752.50;6167235;23;20437;-79
2023/08/11 08:42:37;;;;;;;7.47;3.95;;;;;;;27.83;50.26;101761.31;6162624;23;20023;-80
2023/08/11 08:45:05;;;;;;;5.43;3.47;;;;;;;27.91;50.46;101779.28;6168610;23;20024;-80
2023/08/11 08:47:38;;;;;;;3.85;3.13;;;;;;;27.95;50.02;101779.69;6182869;23;20024;-82
2023/08/11 08:50:09;;;;;;;6.05;3.17;;;;;;;27.81;50.10;101741.56;6184247;23;20564;-81
2023/08/11 08:52:38;;;;;;;6.05;3.28;;;;;;;27.90;50.10;101750.34;6176125;23;20017;-80
2023/08/11 08:55:05;;;;;;;4.57;2.80;;;;;;;28.15;50.04;101776.75;6177551;23;20031;-81
2023/08/11 08:57:33;;;;;;;7.57;3.83;;;;;;;28.22;49.54;101770.16;6169680;23;20048;-80
2023/08/11 09:00:00;;;;;;;5.70;3.10;;;;;;;28.39;49.06;101778.59;6175255;23;20367;-82
2023/08/11 09:02:29;;;;;;;9.65;3.35;;;;;;;28.50;49.21;101775.16;6163455;23;20312;-82
2023/08/11 09:05:02;;;;;;;7.90;3.05;;;;;;;28.54;48.64;101775.53;6154665;23;20091;-80
2023/08/11 09:10:53;;;;;;;6.75;3.10;;;;;;;28.74;46.55;101769.81;6157624;23;20280;-82
2023/08/11 09:13:20;;;;;;;3.38;3.05;;;;;;;28.74;46.18;101765.22;6183681;23;20103;-79
2023/08/11 09:15:47;;;;;;;4.40;3.65;;;;;;;28.77;45.61;101767.47;6176356;23;20401;-81
2023/08/11 09:18:16;;;;;;;3.90;2.92;;;;;;;28.76;45.46;101765.81;6174520;23;20032;-79
2023/08/11 09:20:56;;;;;;;8.02;3.65;;;;;;;28.85;44.87;101752.66;6109053;23;20272;-82
2023/08/11 09:23:33;;;;;;;8.25;3.55;;;;;;;29.15;44.89;101763.63;6146446;23;20020;-81
2023/08/11 09:26:01;;;;;;;4.82;3.28;;;;;;;29.18;45.29;101752.22;6165834;23;20023;-81
2023/08/11 09:28:32;;;;;;;5.38;2.95;;;;;;;29.11;44.78;101732.34;6186728;23;20024;-81
2023/08/11 09:31:02;;;;;;;8.38;2.72;;;;;;;29.36;43.80;101766.91;6171830;23;20239;-82
2023/08/11 09:33:30;;;;;;;5.38;3.00;;;;;;;29.51;41.80;101775.50;6178589;23;20016;-81
2023/08/11 09:36:02;;;;;;;4.35;3.20;;;;;;;29.51;40.15;101770.03;6113429;23;20032;-82
2023/08/11 09:38:34;;;;;;;6.63;2.85;;;;;;;29.54;39.67;101758.63;6102756;23;20020;-81
2023/08/11 09:41:04;;;;;;;9.57;3.08;;;;;;;29.69;40.77;101765.59;6127946;23;20021;-82
2023/08/11 09:43:35;;;;;;;5.22;3.60;;;;;;;29.85;42.43;101761.31;6174932;23;20353;-82
2023/08/11 09:46:01;;;;;;;6.65;3.75;;;;;;;29.78;41.44;101737.63;6164305;23;20457;-81
2023/08/11 09:48:28;;;;;;;8.38;3.75;;;;;;;29.79;41.30;101733.00;6177187;23;20017;-82
2023/08/11 09:50:57;;;;;;;6.32;3.47;;;;;;;30.04;41.65;101758.19;6171298;23;20332;-81
2023/08/11 09:53:27;;;;;;;9.68;3.30;;;;;;;30.12;41.63;101753.44;6181907;23;20017;-83
2023/08/11 09:55:55;;;;;;;6.97;3.53;;;;;;;30.06;41.05;101716.06;6175231;23;20455;-85
2023/08/11 09:58:26;;;;;;;4.75;3.72;;;;;;;30.28;40.33;101752.75;6175599;23;20020;-81
2023/08/11 10:00:58;;;;;;;4.32;3.47;;;;;;;30.24;40.20;101754.25;6167349;23;20100;-82
2023/08/11 10:03:52;;;;;;;3.83;3.20;;;;;;;30.24;40.49;101741.41;6149875;23;20385;-82
2023/08/11 10:06:27;;;;;;;4.85;3.67;;;;;;;30.25;39.81;101703.94;6149819;23;20024;-81
2023/08/11 10:09:02;;;;;;;6.70;3.53;;;;;;;30.73;39.74;101753.94;6154025;23;20378;-81
2023/08/11 10:11:35;;;;;;;6.65;4.28;;;;;;;30.30;39.72;101660.22;6162587;23;20311;-79
2023/08/11 10:14:05;;;;;;;9.38;3.38;;;;;;;30.77;40.01;101716.75;6158085;23;20031;-81
2023/08/11 10:16:36;;;;;;;5.25;3.47;;;;;;;31.22;39.74;101757.13;6173396;23;20078;-81
2023/08/11 10:19:09;;;;;;;5.70;3.85;;;;;;;31.47;39.30;101748.53;6166904;23;20016;-81
2023/08/11 10:21:37;;;;;;;7.65;4.38;;;;;;;31.69;38.80;101763.16;6175963;23;20016;-81
2023/08/11 10:24:05;;;;;;;8.73;4.07;;;;;;;31.78;38.07;101765.50;6168000;23;20323;-79
2023/08/11 10:26:33;;;;;;;7.32;4.10;;;;;;;31.68;38.48;101742.28;6180281;23;20021;-80
2023/08/11 10:29:00;;;;;;;5.78;4.22;;;;;;;31.76;38.70;101753.94;6186993;23;20104;-80
2023/08/11 10:31:34;;;;;;;6.70;4.07;;;;;;;31.77;38.85;101755.59;6194014;23;20020;-80
2023/08/11 10:34:06;;;;;;;5.85;3.65;;;;;;;31.91;38.75;101763.22;6169660;23;20283;-79
2023/08/11 10:36:33;;;;;;;4.82;3.80;;;;;;;32.10;38.48;101762.97;6187458;23;20017;-81
2023/08/11 10:39:17;;;;;;;6.65;4.35;;;;;;;32.10;38.43;101752.81;6164646;23;20433;-79
2023/08/11 10:42:12;;;;;;;6.45;4.10;;;;;;;31.83;39.03;101696.94;6137398;23;20297;-82
2023/08/11 10:44:45;;;;;;;7.68;4.07;;;;;;;32.05;38.57;101722.53;6168973;23;20028;-82
2023/08/11 10:47:17;;;;;;;8.15;3.90;;;;;;;32.42;38.28;101754.91;6179413;23;20031;-81
2023/08/11 10:49:45;;;;;;;4.20;3.80;;;;;;;32.55;37.43;101754.56;6155056;23;20484;-82
2023/08/11 10:52:16;;;;;;;8.18;3.78;;;;;;;32.65;37.70;101742.00;6175590;23;20036;-81
2023/08/11 10:54:50;;;;;;;3.75;3.33;;;;;;;32.81;37.12;101751.28;6159001;23;20017;-81
2023/08/11 10:57:17;;;;;;;6.28;3.83;;;;;;;32.99;36.99;101753.69;6164625;23;20020;-81
2023/08/11 10:59:44;;;;;;;5.68;4.10;;;;;;;32.88;37.24;101725.22;6159339;23;20438;-82
2023/08/11 11:02:12;;;;;;;5.25;4.38;;;;;;;32.96;37.24;101738.53;6178540;23;20308;-83
2023/08/11 11:04:41;;;;;;;9.43;4.15;;;;;;;33.14;36.83;101739.28;6199696;23;20448;-82
2023/08/11 11:07:16;;;;;;;6.68;3.80;;;;;;;32.85;36.54;101697.44;6184704;23;20106;-81
2023/08/11 11:09:46;;;;;;;16.20;4.38;;;;;;;32.92;36.80;101707.13;6173006;23;20052;-81
2023/08/11 11:12:14;;;;;;;10.13;3.55;;;;;;;33.31;37.08;101745.47;6195409;23;20019;-81
2023/08/11 11:14:41;;;;;;;8.68;4.28;;;;;;;33.52;36.38;101734.63;6191850;23;20025;-80
2023/08/11 11:17:08;;;;;;;7.82;4.07;;;;;;;33.73;36.20;101743.91;6168457;23;20051;-82
2023/08/11 11:19:35;;;;;;;4.90;4.18;;;;;;;33.74;35.57;101712.53;6173642;23;20056;-82
2023/08/11 11:22:02;;;;;;;10.88;4.70;;;;;;;34.19;34.84;101749.75;6178718;23;20020;-81
2023/08/11 11:24:29;;;;;;;6.70;3.90;;;;;;;34.00;34.54;101708.00;6183988;23;20071;-82
2023/08/11 11:27:00;;;;;;;6.15;4.07;;;;;;;33.66;34.24;101650.53;6180007;23;20353;-81
2023/08/11 11:29:28;;;;;;;4.45;3.90;;;;;;;33.94;34.44;101703.59;6171615;23;20059;-81
2023/08/11 11:31:56;;;;;;;8.30;4.25;;;;;;;34.36;34.32;101739.34;6170036;23;20173;-81
2023/08/11 11:34:23;;;;;;;8.40;4.30;;;;;;;34.13;34.29;101703.97;6188077;23;20016;-82
2023/08/11 11:36:50;;;;;;;6.80;4.50;;;;;;;34.37;34.04;101732.75;6182959;23;20179;-80